sensor_id;sensor_type;location;lat;lon;timestamp;pressure;altitude;pressure_sealevel;temperature;humidity
23303;BME280;11820;48.738;9.092;2023-08-17T00:02:14;96446.75;;;22.43;100.00
23303;BME280;11820;48.738;9.092;2023-08-17T00:04:40;96450.47;;;22.42;100.00
23303;BME280;11820;48.738;9.092;2023-08-17T00:07:06;96451.22;;;22.42;100.00
23303;BME280;11820;48.738;9.092;2023-08-17T00:09:31;96451.72;;;22.34;100.00
23303;BME280;11820;48.738;9.092;2023-08-17T00:11:57;96457.84;;;22.45;100.00
23303;BME280;11820;48.738;9.092;2023-08-17T00:14:22;96458.63;;;22.45;100.00
23303;BME280;11820;48.738;9.092;2023-08-17T00:16:49;96458.09;;;22.53;100.00
23303;BME280;11820;48.738;9.092;2023-08-17T00:19:15;96460.47;;;22.45;100.00
23303;BME280;11820;48.738;9.092;2023-08-17T00:21:40;96449.69;;;22.46;100.00
23303;BME280;11820;48.738;9.092;2023-08-17T00:24:05;96452.06;;;22.63;100.00
23303;BME280;11820;48.738;9.092;2023-08-17T00:26:31;96459.94;;;22.48;100.00
23303;BME280;11820;48.738;9.092;2023-08-17T00:28:56;96448.09;;;22.50;100.00
23303;BME280;11820;48.738;9.092;2023-08-17T00:31:21;96439.84;;;22.32;100.00
23303;BME280;11820;48.738;9.092;2023-08-17T00:33:47;96434.06;;;22.25;100.00
23303;BME280;11820;48.738;9.092;2023-08-17T00:36:12;96428.00;;;22.24;100.00
23303;BME280;11820;48.738;9.092;2023-08-17T00:38:38;96423.25;;;22.26;100.00
23303;BME280;11820;48.738;9.092;2023-08-17T00:41:03;96418.25;;;22.20;100.00
23303;BME280;11820;48.738;9.092;2023-08-17T00:43:28;96426.16;;;22.25;100.00
23303;BME280;11820;48.738;9.092;2023-08-17T00:45:53;96424.56;;;22.29;100.00
23303;BME280;11820;48.738;9.092;2023-08-17T00:48:19;96416.13;;;22.22;100.00
23303;BME280;11820;48.738;9.092;2023-08-17T00:50:47;96425.09;;;22.26;100.00
23303;BME280;11820;48.738;9.092;2023-08-17T00:53:14;96418.25;;;22.25;100.00
23303;BME280;11820;48.738;9.092;2023-08-17T00:55:41;96410.34;;;22.30;100.00
23303;BME280;11820;48.738;9.092;2023-08-17T00:58:07;96417.72;;;22.23;100.00
23303;BME280;11820;48.738;9.092;2023-08-17T01:00:32;96413.22;;;22.08;100.00
23303;BME280;11820;48.738;9.092;2023-08-17T01:02:58;96412.69;;;22.06;100.00
23303;BME280;11820;48.738;9.092;2023-08-17T01:05:23;96409.25;;;21.96;100.00
23303;BME280;11820;48.738;9.092;2023-08-17T01:07:49;96404.78;;;22.11;100.00
23303;BME280;11820;48.738;9.092;2023-08-17T01:10:14;96404.00;;;22.16;100.00
23303;BME280;11820;48.738;9.092;2023-08-17T01:13:03;96404.50;;;21.98;100.00
23303;BME280;11820;48.738;9.092;2023-08-17T01:15:36;96402.94;;;22.02;100.00
23303;BME280;11820;48.738;9.092;2023-08-17T01:18:12;96407.13;;;21.83;100.00
23303;BME280;11820;48.738;9.092;2023-08-17T01:20:41;96421.88;;;21.84;100.00
23303;BME280;11820;48.738;9.092;2023-08-17T01:23:07;96419.25;;;21.94;100.00
23303;BME280;11820;48.738;9.092;2023-08-17T01:25:32;96421.31;;;21.82;100.00
23303;BME280;11820;48.738;9.092;2023-08-17T01:28:04;96420.13;;;21.53;100.00
23303;BME280;11820;48.738;9.092;2023-08-17T01:33:27;96417.97;;;22.01;100.00
23303;BME280;11820;48.738;9.092;2023-08-17T01:38:40;96416.13;;;22.17;100.00
23303;BME280;11820;48.738;9.092;2023-08-17T01:41:09;96408.22;;;22.12;100.00
23303;BME280;11820;48.738;9.092;2023-08-17T01:43:40;96416.13;;;22.22;100.00
23303;BME280;11820;48.738;9.092;2023-08-17T01:46:07;96411.91;;;22.16;100.00
23303;BME280;11820;48.738;9.092;2023-08-17T01:48:32;96405.03;;;22.00;100.00
23303;BME280;11820;48.738;9.092;2023-08-17T01:50:57;96410.34;;;22.20;100.00
23303;BME280;11820;48.738;9.092;2023-08-17T01:53:23;96410.59;;;22.18;100.00
23303;BME280;11820;48.738;9.092;2023-08-17T01:55:48;96409.78;;;22.03;100.00
23303;BME280;11820;48.738;9.092;2023-08-17T01:58:14;96409.53;;;22.09;100.00
23303;BME280;11820;48.738;9.092;2023-08-17T02:00:39;96405.59;;;22.22;100.00
23303;BME280;11820;48.738;9.092;2023-08-17T02:03:04;96412.69;;;22.16;100.00
23303;BME280;11820;48.738;9.092;2023-08-17T02:05:30;96405.84;;;22.20;100.00
23303;BME280;11820;48.738;9.092;2023-08-17T02:07:55;96402.19;;;22.21;100.00
23303;BME280;11820;48.738;9.092;2023-08-17T02:10:21;96397.97;;;22.25;100.00
23303;BME280;11820;48.738;9.092;2023-08-17T02:12:47;96393.75;;;22.24;100.00
23303;BME280;11820;48.738;9.092;2023-08-17T02:15:12;96397.44;;;22.28;100.00
23303;BME280;11820;48.738;9.092;2023-08-17T02:17:37;96404.53;;;22.08;100.00
23303;BME280;11820;48.738;9.092;2023-08-17T02:20:03;96400.84;;;22.14;100.00
23303;BME280;11820;48.738;9.092;2023-08-17T02:22:29;96392.16;;;22.28;100.00
23303;BME280;11820;48.738;9.092;2023-08-17T02:24:54;96383.44;;;22.28;100.00
23303;BME280;11820;48.738;9.092;2023-08-17T02:27:21;96387.16;;;22.37;100.00
23303;BME280;11820;48.738;9.092;2023-08-17T02:29:46;96390.59;;;22.37;100.00
23303;BME280;11820;48.738;9.092;2023-08-17T02:32:11;96376.63;;;22.37;100.00
23303;BME280;11820;48.738;9.092;2023-08-17T02:34:37;96386.66;;;22.45;100.00
23303;BME280;11820;48.738;9.092;2023-08-17T02:37:02;96378.75;;;22.50;100.00
23303;BME280;11820;48.738;9.092;2023-08-17T02:39:27;96377.44;;;22.47;100.00
23303;BME280;11820;48.738;9.092;2023-08-17T02:41:53;96377.19;;;22.39;100.00
23303;BME280;11820;48.738;9.092;2023-08-17T02:44:18;96368.22;;;22.40;100.00
23303;BME280;11820;48.738;9.092;2023-08-17T02:46:43;96372.38;;;22.31;100.00
23303;BME280;11820;48.738;9.092;2023-08-17T02:49:09;96382.97;;;22.41;100.00
23303;BME280;11820;48.738;9.092;2023-08-17T02:51:34;96368.22;;;22.40;100.00
23303;BME280;11820;48.738;9.092;2023-08-17T02:53:59;96368.72;;;22.42;100.00
23303;BME280;11820;48.738;9.092;2023-08-17T02:56:24;96361.34;;;22.44;100.00
23303;BME280;11820;48.738;9.092;2023-08-17T02:58:50;96365.28;;;22.26;100.00
23303;BME280;11820;48.738;9.092;2023-08-17T03:01:15;96355.28;;;22.38;100.00
23303;BME280;11820;48.738;9.092;2023-08-17T03:03:40;96364.00;;;22.39;100.00
23303;BME280;11820;48.738;9.092;2023-08-17T03:06:06;96352.91;;;22.37;100.00
23303;BME280;11820;48.738;9.092;2023-08-17T03:08:32;96358.44;;;22.30;100.00
23303;BME280;11820;48.738;9.092;2023-08-17T03:10:57;96348.19;;;22.39;100.00
23303;BME280;11820;48.738;9.092;2023-08-17T03:13:22;96342.63;;;22.45;100.00
23303;BME280;11820;48.738;9.092;2023-08-17T03:15:47;96347.88;;;22.45;100.00
23303;BME280;11820;48.738;9.092;2023-08-17T03:18:13;96338.66;;;22.28;100.00
23303;BME280;11820;48.738;9.092;2023-08-17T03:20:38;96336.03;;;22.13;100.00
23303;BME280;11820;48.738;9.092;2023-08-17T03:23:03;96338.13;;;22.01;100.00
23303;BME280;11820;48.738;9.092;2023-08-17T03:25:33;96332.88;;;22.16;100.00
23303;BME280;11820;48.738;9.092;2023-08-17T03:27:59;96334.19;;;21.98;100.00
23303;BME280;11820;48.738;9.092;2023-08-17T03:30:25;96333.91;;;22.00;100.00
23303;BME280;11820;48.738;9.092;2023-08-17T03:32:50;96332.59;;;22.12;100.00
23303;BME280;11820;48.738;9.092;2023-08-17T03:35:15;96331.81;;;22.17;100.00
23303;BME280;11820;48.738;9.092;2023-08-17T03:37:41;96327.88;;;22.24;100.00
23303;BME280;11820;48.738;9.092;2023-08-17T03:40:06;96331.28;;;22.20;100.00
23303;BME280;11820;48.738;9.092;2023-08-17T03:42:32;96328.38;;;22.16;100.00
23303;BME280;11820;48.738;9.092;2023-08-17T03:44:57;96334.16;;;22.13;100.00
23303;BME280;11820;48.738;9.092;2023-08-17T03:47:23;96343.41;;;22.21;100.00
23303;BME280;11820;48.738;9.092;2023-08-17T03:49:48;96340.78;;;22.36;100.00
23303;BME280;11820;48.738;9.092;2023-08-17T03:52:13;96347.06;;;22.30;100.00
23303;BME280;11820;48.738;9.092;2023-08-17T03:54:39;96336.31;;;22.21;100.00
23303;BME280;11820;48.738;9.092;2023-08-17T03:57:04;96344.72;;;22.08;100.00
23303;BME280;11820;48.738;9.092;2023-08-17T03:59:29;96343.66;;;22.14;100.00
23303;BME280;11820;48.738;9.092;2023-08-17T04:01:55;96348.69;;;22.11;100.00
23303;BME280;11820;48.738;9.092;2023-08-17T04:04:20;96348.69;;;22.16;100.00
23303;BME280;11820;48.738;9.092;2023-08-17T04:06:45;96355.78;;;22.15;100.00
23303;BME280;11820;48.738;9.092;2023-08-17T04:09:11;96355.53;;;22.17;100.00
23303;BME280;11820;48.738;9.092;2023-08-17T04:11:36;96357.38;;;22.26;100.00
23303;BME280;11820;48.738;9.092;2023-08-17T04:14:02;96362.38;;;22.18;100.00
23303;BME280;11820;48.738;9.092;2023-08-17T04:16:28;96363.44;;;22.22;100.00
23303;BME280;11820;48.738;9.092;2023-08-17T04:18:53;96361.03;;;22.15;100.00
23303;BME280;11820;48.738;9.092;2023-08-17T04:21:18;96370.25;;;22.03;100.00
23303;BME280;11820;48.738;9.092;2023-08-17T04:23:45;96374.50;;;22.14;100.00
23303;BME280;11820;48.738;9.092;2023-08-17T04:26:11;96371.59;;;22.15;100.00
23303;BME280;11820;48.738;9.092;2023-08-17T04:28:36;96374.50;;;22.09;100.00
23303;BME280;11820;48.738;9.092;2023-08-17T04:31:01;96371.34;;;22.12;100.00
23303;BME280;11820;48.738;9.092;2023-08-17T04:33:26;96373.41;;;22.05;100.00
23303;BME280;11820;48.738;9.092;2023-08-17T04:35:52;96378.16;;;21.98;100.00
23303;BME280;11820;48.738;9.092;2023-08-17T04:38:17;96374.22;;;22.00;100.00
23303;BME280;11820;48.738;9.092;2023-08-17T04:40:42;96375.78;;;21.91;100.00
23303;BME280;11820;48.738;9.092;2023-08-17T04:43:10;96373.41;;;21.85;100.00
23303;BME280;11820;48.738;9.092;2023-08-17T04:45:35;96369.41;;;21.67;100.00
23303;BME280;11820;48.738;9.092;2023-08-17T04:48:00;96375.59;;;21.32;100.00
23303;BME280;11820;48.738;9.092;2023-08-17T04:50:26;96365.38;;;21.55;100.00
23303;BME280;11820;48.738;9.092;2023-08-17T04:52:51;96377.53;;;21.61;100.00
23303;BME280;11820;48.738;9.092;2023-08-17T04:55:16;96388.53;;;21.53;100.00
23303;BME280;11820;48.738;9.092;2023-08-17T04:57:42;96383.63;;;21.66;100.00
23303;BME280;11820;48.738;9.092;2023-08-17T05:00:07;96389.16;;;21.70;100.00
23303;BME280;11820;48.738;9.092;2023-08-17T05:02:35;96387.38;;;21.90;100.00
23303;BME280;11820;48.738;9.092;2023-08-17T05:05:04;96382.91;;;21.96;100.00
23303;BME280;11820;48.738;9.092;2023-08-17T05:07:30;96386.59;;;21.95;100.00
23303;BME280;11820;48.738;9.092;2023-08-17T05:09:55;96385.53;;;21.86;100.00
23303;BME280;11820;48.738;9.092;2023-08-17T05:12:20;96385.78;;;21.84;100.00
23303;BME280;11820;48.738;9.092;2023-08-17T05:14:45;96392.63;;;21.80;100.00
23303;BME280;11820;48.738;9.092;2023-08-17T05:17:11;96390.81;;;21.91;100.00
23303;BME280;11820;48.738;9.092;2023-08-17T05:19:36;96390.56;;;21.97;100.00
23303;BME280;11820;48.738;9.092;2023-08-17T05:22:03;96387.41;;;21.95;100.00
23303;BME280;11820;48.738;9.092;2023-08-17T05:24:28;96396.59;;;21.88;100.00
23303;BME280;11820;48.738;9.092;2023-08-17T05:26:54;96392.88;;;21.79;100.00
23303;BME280;11820;48.738;9.092;2023-08-17T05:29:19;96395.53;;;21.94;100.00
23303;BME280;11820;48.738;9.092;2023-08-17T05:31:44;96396.06;;;21.96;100.00
23303;BME280;11820;48.738;9.092;2023-08-17T05:34:10;96402.97;;;22.12;100.00
23303;BME280;11820;48.738;9.092;2023-08-17T05:36:36;96404.25;;;22.04;100.00
23303;BME280;11820;48.738;9.092;2023-08-17T05:39:01;96405.03;;;21.85;100.00
23303;BME280;11820;48.738;9.092;2023-08-17T05:41:27;96403.19;;;22.00;100.00
23303;BME280;11820;48.738;9.092;2023-08-17T05:43:52;96402.94;;;22.02;100.00
23303;BME280;11820;48.738;9.092;2023-08-17T05:46:18;96402.91;;;21.92;100.00
23303;BME280;11820;48.738;9.092;2023-08-17T05:48:43;96405.56;;;21.92;100.00
23303;BME280;11820;48.738;9.092;2023-08-17T05:51:08;96403.97;;;21.96;100.00
23303;BME280;11820;48.738;9.092;2023-08-17T05:53:34;96392.94;;;22.09;100.00
23303;BME280;11820;48.738;9.092;2023-08-17T05:55:59;96398.47;;;22.07;100.00
23303;BME280;11820;48.738;9.092;2023-08-17T05:58:24;96400.03;;;22.18;100.00
23303;BME280;11820;48.738;9.092;2023-08-17T06:00:50;96405.59;;;22.17;100.00
23303;BME280;11820;48.738;9.092;2023-08-17T06:03:15;96411.91;;;22.11;100.00
23303;BME280;11820;48.738;9.092;2023-08-17T06:05:41;96397.94;;;22.20;100.00
23303;BME280;11820;48.738;9.092;2023-08-17T06:08:06;96409.81;;;22.23;100.00
23303;BME280;11820;48.738;9.092;2023-08-17T06:10:31;96415.59;;;22.20;100.00
23303;BME280;11820;48.738;9.092;2023-08-17T06:12:57;96406.66;;;22.31;100.00
23303;BME280;11820;48.738;9.092;2023-08-17T06:15:23;96411.44;;;22.39;100.00
23303;BME280;11820;48.738;9.092;2023-08-17T06:17:48;96406.13;;;22.24;100.00
23303;BME280;11820;48.738;9.092;2023-08-17T06:20:17;96409.31;;;22.36;100.00
23303;BME280;11820;48.738;9.092;2023-08-17T06:22:43;96414.59;;;22.56;100.00
23303;BME280;11820;48.738;9.092;2023-08-17T06:25:08;96422.53;;;22.61;100.00
23303;BME280;11820;48.738;9.092;2023-08-17T06:27:37;96418.81;;;22.72;100.00
23303;BME280;11820;48.738;9.092;2023-08-17T06:30:03;96421.44;;;22.47;100.00
23303;BME280;11820;48.738;9.092;2023-08-17T06:32:32;96413.53;;;22.52;100.00
23303;BME280;11820;48.738;9.092;2023-08-17T06:34:57;96416.69;;;22.34;100.00
23303;BME280;11820;48.738;9.092;2023-08-17T06:37:23;96428.00;;;22.34;100.00
23303;BME280;11820;48.738;9.092;2023-08-17T06:39:48;96422.47;;;22.21;100.00
23303;BME280;11820;48.738;9.092;2023-08-17T06:42:13;96404.00;;;22.21;100.00
23303;BME280;11820;48.738;9.092;2023-08-17T06:44:39;96411.41;;;22.34;100.00
23303;BME280;11820;48.738;9.092;2023-08-17T06:47:04;96412.22;;;22.44;100.00
23303;BME280;11820;48.738;9.092;2023-08-17T06:49:30;96413.25;;;22.68;100.00
23303;BME280;11820;48.738;9.092;2023-08-17T06:51:56;96410.38;;;22.70;100.00
23303;BME280;11820;48.738;9.092;2023-08-17T06:54:21;96405.34;;;22.63;100.00
23303;BME280;11820;48.738;9.092;2023-08-17T06:56:46;96401.41;;;22.86;100.00
23303;BME280;11820;48.738;9.092;2023-08-17T06:59:11;96414.31;;;22.67;100.00
23303;BME280;11820;48.738;9.092;2023-08-17T07:01:37;96402.44;;;22.90;100.00
23303;BME280;11820;48.738;9.092;2023-08-17T07:04:02;96409.28;;;22.91;100.00
23303;BME280;11820;48.738;9.092;2023-08-17T07:06:28;96407.72;;;22.90;100.00
23303;BME280;11820;48.738;9.092;2023-08-17T07:08:54;96414.56;;;22.96;100.00
23303;BME280;11820;48.738;9.092;2023-08-17T07:11:19;96416.66;;;23.14;100.00
23303;BME280;11820;48.738;9.092;2023-08-17T07:13:44;96411.38;;;23.14;100.00
23303;BME280;11820;48.738;9.092;2023-08-17T07:16:10;96414.78;;;23.19;100.00
23303;BME280;11820;48.738;9.092;2023-08-17T07:18:35;96415.59;;;23.00;100.00
23303;BME280;11820;48.738;9.092;2023-08-17T07:21:00;96409.78;;;23.22;100.00
23303;BME280;11820;48.738;9.092;2023-08-17T07:23:26;96421.66;;;23.15;100.00
23303;BME280;11820;48.738;9.092;2023-08-17T07:25:51;96422.66;;;23.39;100.00
23303;BME280;11820;48.738;9.092;2023-08-17T07:28:16;96423.44;;;23.34;100.00
23303;BME280;11820;48.738;9.092;2023-08-17T07:30:44;96426.63;;;23.31;100.00
23303;BME280;11820;48.738;9.092;2023-08-17T07:33:09;96429.22;;;23.51;100.00
23303;BME280;11820;48.738;9.092;2023-08-17T07:35:34;96433.97;;;23.49;100.00
23303;BME280;11820;48.738;9.092;2023-08-17T07:38:00;96428.78;;;23.24;100.00
23303;BME280;11820;48.738;9.092;2023-08-17T07:40:25;96425.59;;;23.22;100.00
23303;BME280;11820;48.738;9.092;2023-08-17T07:42:50;96421.34;;;23.36;100.00
23303;BME280;11820;48.738;9.092;2023-08-17T07:45:16;96424.81;;;23.27;100.00
23303;BME280;11820;48.738;9.092;2023-08-17T07:47:41;96426.09;;;23.39;100.00
23303;BME280;11820;48.738;9.092;2023-08-17T07:50:07;96428.72;;;23.39;100.00
23303;BME280;11820;48.738;9.092;2023-08-17T07:52:33;96426.94;;;23.20;100.00
23303;BME280;11820;48.738;9.092;2023-08-17T07:54:58;96426.94;;;23.15;100.00
23303;BME280;11820;48.738;9.092;2023-08-17T07:57:24;96423.75;;;23.28;100.00
23303;BME280;11820;48.738;9.092;2023-08-17T07:59:49;96426.88;;;23.40;100.00
23303;BME280;11820;48.738;9.092;2023-08-17T08:02:16;96424.47;;;23.48;100.00
23303;BME280;11820;48.738;9.092;2023-08-17T08:04:41;96416.81;;;23.47;100.00
23303;BME280;11820;48.738;9.092;2023-08-17T08:07:07;96414.19;;;23.42;100.00
23303;BME280;11820;48.738;9.092;2023-08-17T08:09:32;96416.81;;;23.52;100.00
23303;BME280;11820;48.738;9.092;2023-08-17T08:11:57;96423.47;;;23.39;100.00
23303;BME280;11820;48.738;9.092;2023-08-17T08:14:23;96416.31;;;23.40;100.00
23303;BME280;11820;48.738;9.092;2023-08-17T08:16:48;96415.00;;;23.32;100.00
23303;BME280;11820;48.738;9.092;2023-08-17T08:19:13;96417.06;;;23.50;100.00
23303;BME280;11820;48.738;9.092;2023-08-17T08:21:38;96413.88;;;23.53;100.00
23303;BME280;11820;48.738;9.092;2023-08-17T08:24:04;96411.22;;;23.63;100.00
23303;BME280;11820;48.738;9.092;2023-08-17T08:26:29;96412.25;;;23.67;100.00
23303;BME280;11820;48.738;9.092;2023-08-17T08:28:55;96414.38;;;23.65;100.00
23303;BME280;11820;48.738;9.092;2023-08-17T08:31:20;96411.97;;;23.74;100.00
23303;BME280;11820;48.738;9.092;2023-08-17T08:33:45;96420.19;;;23.62;100.00
23303;BME280;11820;48.738;9.092;2023-08-17T08:36:11;96417.00;;;23.60;100.00
23303;BME280;11820;48.738;9.092;2023-08-17T08:38:36;96424.94;;;23.65;100.00
23303;BME280;11820;48.738;9.092;2023-08-17T08:41:02;96414.06;;;23.82;100.00
23303;BME280;11820;48.738;9.092;2023-08-17T08:43:28;96417.47;;;23.77;100.00
23303;BME280;11820;48.738;9.092;2023-08-17T08:45:54;96414.81;;;23.82;100.00
23303;BME280;11820;48.738;9.092;2023-08-17T08:48:26;96413.75;;;23.88;100.00
23303;BME280;11820;48.738;9.092;2023-08-17T08:50:54;96407.09;;;23.96;100.00
23303;BME280;11820;48.738;9.092;2023-08-17T08:53:27;96419.44;;;24.05;100.00
23303;BME280;11820;48.738;9.092;2023-08-17T08:55:58;96408.28;;;24.18;100.00
23303;BME280;11820;48.738;9.092;2023-08-17T08:58:25;96415.34;;;24.28;100.00
23303;BME280;11820;48.738;9.092;2023-08-17T09:00:52;96421.19;;;24.25;100.00
23303;BME280;11820;48.738;9.092;2023-08-17T09:03:17;96413.88;;;24.12;100.00
23303;BME280;11820;48.738;9.092;2023-08-17T09:05:45;96408.50;;;24.22;100.00
23303;BME280;11820;48.738;9.092;2023-08-17T09:08:11;96400.00;;;24.30;100.00
23303;BME280;11820;48.738;9.092;2023-08-17T09:10:38;96396.22;;;24.41;100.00
23303;BME280;11820;48.738;9.092;2023-08-17T09:13:03;96400.38;;;24.47;100.00
23303;BME280;11820;48.738;9.092;2023-08-17T09:15:29;96399.06;;;24.49;100.00
23303;BME280;11820;48.738;9.092;2023-08-17T09:17:54;96403.72;;;24.62;100.00
23303;BME280;11820;48.738;9.092;2023-08-17T09:20:42;96407.78;;;24.83;100.00
23303;BME280;11820;48.738;9.092;2023-08-17T09:23:16;96404.03;;;24.89;100.00
23303;BME280;11820;48.738;9.092;2023-08-17T09:25:43;96405.50;;;25.00;100.00
23303;BME280;11820;48.738;9.092;2023-08-17T09:28:13;96397.88;;;25.22;100.00
23303;BME280;11820;48.738;9.092;2023-08-17T09:30:53;96398.84;;;25.31;100.00
23303;BME280;11820;48.738;9.092;2023-08-17T09:33:20;96396.97;;;25.31;100.00
23303;BME280;11820;48.738;9.092;2023-08-17T09:35:46;96395.63;;;25.34;100.00
23303;BME280;11820;48.738;9.092;2023-08-17T09:38:11;96399.38;;;25.51;100.00
23303;BME280;11820;48.738;9.092;2023-08-17T09:40:36;96402.69;;;25.62;100.00
23303;BME280;11820;48.738;9.092;2023-08-17T09:43:02;96398.72;;;25.83;100.00
23303;BME280;11820;48.738;9.092;2023-08-17T09:45:27;96404.63;;;25.98;100.00
23303;BME280;11820;48.738;9.092;2023-08-17T09:47:54;96398.75;;;26.20;100.00
23303;BME280;11820;48.738;9.092;2023-08-17T09:50:22;96399.50;;;26.39;100.00
23303;BME280;11820;48.738;9.092;2023-08-17T09:52:55;96394.84;;;26.67;100.00
23303;BME280;11820;48.738;9.092;2023-08-17T09:55:23;96391.28;;;26.72;100.00
23303;BME280;11820;48.738;9.092;2023-08-17T09:57:49;96393.69;;;26.87;100.00
23303;BME280;11820;48.738;9.092;2023-08-17T10:00:16;96395.16;;;26.79;100.00
23303;BME280;11820;48.738;9.092;2023-08-17T10:02:43;96386.88;;;27.13;100.00
23303;BME280;11820;48.738;9.092;2023-08-17T10:05:11;96389.16;;;27.19;100.00
23303;BME280;11820;48.738;9.092;2023-08-17T10:07:38;96386.06;;;27.12;100.00
23303;BME280;11820;48.738;9.092;2023-08-17T10:10:06;96380.13;;;27.02;100.00
23303;BME280;11820;48.738;9.092;2023-08-17T10:12:37;96389.75;;;26.84;100.00
23303;BME280;11820;48.738;9.092;2023-08-17T10:15:11;96385.66;;;27.05;100.00
23303;BME280;11820;48.738;9.092;2023-08-17T10:17:56;96381.31;;;26.96;100.00
23303;BME280;11820;48.738;9.092;2023-08-17T10:20:25;96384.72;;;27.15;100.00
23303;BME280;11820;48.738;9.092;2023-08-17T10:22:56;96378.41;;;27.24;100.00
23303;BME280;11820;48.738;9.092;2023-08-17T10:25:29;96384.91;;;27.32;100.00
23303;BME280;11820;48.738;9.092;2023-08-17T10:27:55;96384.22;;;27.26;100.00
23303;BME280;11820;48.738;9.092;2023-08-17T10:30:21;96378.81;;;27.45;100.00
23303;BME280;11820;48.738;9.092;2023-08-17T10:32:47;96380.75;;;27.39;100.00
23303;BME280;11820;48.738;9.092;2023-08-17T10:35:13;96375.94;;;27.14;100.00
23303;BME280;11820;48.738;9.092;2023-08-17T10:37:39;96379.88;;;27.30;100.00
23303;BME280;11820;48.738;9.092;2023-08-17T10:40:06;96380.69;;;27.44;100.00
23303;BME280;11820;48.738;9.092;2023-08-17T10:42:33;96377.81;;;27.54;100.00
23303;BME280;11820;48.738;9.092;2023-08-17T10:44:59;96373.56;;;27.80;100.00
23303;BME280;11820;48.738;9.092;2023-08-17T10:47:35;96375.75;;;27.78;100.00
23303;BME280;11820;48.738;9.092;2023-08-17T10:50:06;96377.34;;;28.01;100.00
23303;BME280;11820;48.738;9.092;2023-08-17T10:52:35;96375.81;;;28.22;100.00
23303;BME280;11820;48.738;9.092;2023-08-17T10:55:05;96367.69;;;28.41;100.00
23303;BME280;11820;48.738;9.092;2023-08-17T10:57:36;96367.19;;;28.39;100.00
23303;BME280;11820;48.738;9.092;2023-08-17T11:02:53;96366.88;;;28.62;100.00
23303;BME280;11820;48.738;9.092;2023-08-17T11:08:10;96376.84;;;28.78;100.00
23303;BME280;11820;48.738;9.092;2023-08-17T11:10:37;96373.03;;;28.71;100.00
23303;BME280;11820;48.738;9.092;2023-08-17T11:13:03;96372.41;;;28.96;100.00
23303;BME280;11820;48.738;9.092;2023-08-17T11:15:40;96368.00;;;29.30;100.00
23303;BME280;11820;48.738;9.092;2023-08-17T11:18:10;96360.31;;;29.29;100.00
23303;BME280;11820;48.738;9.092;2023-08-17T11:20:39;96355.09;;;29.63;100.00
23303;BME280;11820;48.738;9.092;2023-08-17T11:23:05;96356.72;;;29.89;100.00
23303;BME280;11820;48.738;9.092;2023-08-17T11:25:31;96353.09;;;29.68;100.00
23303;BME280;11820;48.738;9.092;2023-08-17T11:27:57;96347.44;;;29.87;100.00
23303;BME280;11820;48.738;9.092;2023-08-17T11:30:24;96357.53;;;30.07;100.00
23303;BME280;11820;48.738;9.092;2023-08-17T11:32:51;96348.44;;;30.16;100.00
23303;BME280;11820;48.738;9.092;2023-08-17T11:35:17;96350.59;;;29.97;100.00
23303;BME280;11820;48.738;9.092;2023-08-17T11:37:42;96350.41;;;29.85;100.00
23303;BME280;11820;48.738;9.092;2023-08-17T11:40:12;96349.97;;;30.00;100.00
23303;BME280;11820;48.738;9.092;2023-08-17T11:42:37;96344.75;;;29.70;100.00
23303;BME280;11820;48.738;9.092;2023-08-17T11:45:06;96351.97;;;29.61;100.00
23303;BME280;11820;48.738;9.092;2023-08-17T11:47:38;96362.56;;;29.44;100.00
23303;BME280;11820;48.738;9.092;2023-08-17T11:50:09;96355.91;;;29.24;100.00
23303;BME280;11820;48.738;9.092;2023-08-17T11:52:35;96360.97;;;28.95;100.00
23303;BME280;11820;48.738;9.092;2023-08-17T11:55:04;96363.84;;;29.07;100.00
23303;BME280;11820;48.738;9.092;2023-08-17T11:57:33;96355.53;;;29.09;100.00
23303;BME280;11820;48.738;9.092;2023-08-17T12:00:00;96358.06;;;29.14;100.00
23303;BME280;11820;48.738;9.092;2023-08-17T12:02:27;96363.53;;;29.48;100.00
23303;BME280;11820;48.738;9.092;2023-08-17T12:04:54;96356.72;;;29.81;100.00
23303;BME280;11820;48.738;9.092;2023-08-17T12:07:23;96378.94;;;29.51;100.00
23303;BME280;11820;48.738;9.092;2023-08-17T12:09:50;96373.75;;;29.54;100.00
23303;BME280;11820;48.738;9.092;2023-08-17T12:12:19;96390.03;;;29.14;100.00
23303;BME280;11820;48.738;9.092;2023-08-17T12:14:47;96385.28;;;28.80;100.00
23303;BME280;11820;48.738;9.092;2023-08-17T12:17:19;96397.66;;;28.54;100.00
23303;BME280;11820;48.738;9.092;2023-08-17T12:19:49;96393.44;;;28.18;100.00
23303;BME280;11820;48.738;9.092;2023-08-17T12:22:14;96391.94;;;28.26;100.00
23303;BME280;11820;48.738;9.092;2023-08-17T12:24:40;96389.47;;;28.29;100.00
23303;BME280;11820;48.738;9.092;2023-08-17T12:27:05;96394.53;;;27.95;100.00
23303;BME280;11820;48.738;9.092;2023-08-17T12:29:31;96391.34;;;27.93;100.00
23303;BME280;11820;48.738;9.092;2023-08-17T12:31:58;96383.59;;;27.70;100.00
23303;BME280;11820;48.738;9.092;2023-08-17T12:34:23;96379.59;;;27.72;100.00
23303;BME280;11820;48.738;9.092;2023-08-17T12:36:49;96370.72;;;27.50;100.00
23303;BME280;11820;48.738;9.092;2023-08-17T12:39:15;96378.09;;;27.53;100.00
23303;BME280;11820;48.738;9.092;2023-08-17T12:41:40;96383.34;;;27.44;100.00
23303;BME280;11820;48.738;9.092;2023-08-17T12:44:06;96395.84;;;27.44;100.00
23303;BME280;11820;48.738;9.092;2023-08-17T12:46:31;96413.63;;;27.30;100.00
23303;BME280;11820;48.738;9.092;2023-08-17T12:48:58;96412.22;;;27.05;100.00
23303;BME280;11820;48.738;9.092;2023-08-17T12:51:24;96424.16;;;26.89;100.00
23303;BME280;11820;48.738;9.092;2023-08-17T12:53:49;96418.25;;;26.79;100.00
23303;BME280;11820;48.738;9.092;2023-08-17T12:56:15;96425.09;;;26.66;100.00
23303;BME280;11820;48.738;9.092;2023-08-17T12:58:40;96435.28;;;26.60;100.00